Terminal Aerodrome Forecast
Issued by NWS

Home | Current Version | Previous Version | Text Only | Print | Product List | Glossary On
Versions: 1 2 3 4 5 6 7 8 9 10 11 12 13 14
000
FTUS43 KMQT 172320
TAFCMX
TAF
KCMX 172320Z 1800/1824 21005KT P6SM OVC015
     FM180600 24008KT P6SM BKN008
     FM181300 23008KT P6SM BKN010
     FM181500 21008KT P6SM BKN020
     FM181800 23012G20KT P6SM SCT035
     FM181900 23012G20KT P6SM BKN060
     FM182300 23011G24KT P6SM -SNRA BKN070=

USA.gov is the U.S. government's official web portal to all federal, state and local government web resources and services.